WSSL/XSP METAR and TAF weather

Enter ICAO airport designator
Station Type Date Time Source
WSSL METAR 2021/05/12 23:00 UTC NOAA

WSSL 122300Z 18001KT 7000 FEW018 FEW020TCU BKN300 25/24 Q1006


Station Type Date Time Source
WSSL Decoded METAR 2021/05/12 23:00 UTC NOAA

Station name not available
May 12, 2021 - 07:00 PM EDT / 2021.05.12 2300 UTC
Wind: from the S (180 degrees) at 1 MPH (1 KT):0
Visibility: 4 mile(s):0
Sky conditions: mostly cloudy
Weather: Towering cumulus clouds observed
Temperature: 77 F (25 C)
Dew Point: 75 F (24 C)
Relative Humidity: 94%
Pressure (altimeter): 29.71 in. Hg (1006 hPa)
ob: WSSL 122300Z 18001KT 7000 FEW018 FEW020TCU BKN300 25/24 Q1006
cycle: 23

Station Type Date Time Source
WSSL TAF 2021/05/12 18:00 UTC NOAA

TAF WSSL 121700Z 1218/1400 20007KT 9999 FEW015 SCT020
TEMPO 1306/1309 3000 TSRA FEW012CB BKN015

Example: see airport list